createdAt,value
2022-12-23T00:01:25.683Z,10.60
2022-12-23T00:03:54.228Z,10.50
2022-12-23T00:06:22.230Z,10.50
2022-12-23T00:08:50.303Z,10.50
2022-12-23T00:11:21.541Z,10.50
2022-12-23T00:14:07.020Z,10.50
2022-12-23T00:16:37.042Z,10.50
2022-12-23T00:19:05.279Z,10.50
2022-12-23T00:21:33.582Z,10.50
2022-12-23T00:24:01.562Z,10.50
2022-12-23T00:26:31.011Z,10.50
2022-12-23T00:29:00.120Z,10.40
2022-12-23T00:31:28.212Z,10.40
2022-12-23T00:33:56.278Z,10.30
2022-12-23T00:36:25.610Z,10.30
2022-12-23T00:39:11.262Z,10.30
2022-12-23T00:41:58.249Z,10.30
2022-12-23T00:44:26.843Z,10.40
2022-12-23T00:46:54.960Z,10.40
2022-12-23T00:49:40.444Z,10.40
2022-12-23T00:52:11.244Z,10.40
2022-12-23T00:54:39.291Z,10.50
2022-12-23T00:57:08.712Z,10.50
2022-12-23T00:59:36.743Z,10.50
2022-12-23T01:02:22.510Z,10.50
2022-12-23T01:05:08.016Z,10.60
2022-12-23T01:07:36.281Z,10.60
2022-12-23T01:10:05.449Z,10.60
2022-12-23T01:12:34.794Z,10.60
2022-12-23T01:15:02.762Z,10.60
2022-12-23T01:17:31.309Z,10.60
2022-12-23T01:19:59.345Z,10.70
2022-12-23T01:22:27.356Z,10.70
2022-12-23T01:24:55.326Z,10.60
2022-12-23T01:27:23.413Z,10.70
2022-12-23T01:29:52.897Z,10.60
2022-12-23T01:32:20.978Z,10.70
2022-12-23T01:34:48.992Z,10.60
2022-12-23T01:37:17.047Z,10.60
2022-12-23T01:39:45.021Z,10.60
2022-12-23T01:42:32.638Z,10.60
2022-12-23T01:45:05.371Z,10.60
2022-12-23T01:47:39.101Z,10.60
2022-12-23T01:50:15.670Z,10.60
2022-12-23T01:52:48.663Z,10.60
2022-12-23T01:55:19.311Z,10.60
2022-12-23T01:57:48.284Z,10.60
2022-12-23T02:00:35.835Z,10.60
2022-12-23T02:03:21.309Z,10.60
2022-12-23T02:05:49.989Z,10.60
2022-12-23T02:08:37.353Z,10.60
2022-12-23T02:11:29.557Z,10.60
2022-12-23T02:14:29.333Z,10.60
2022-12-23T02:17:07.903Z,10.60
2022-12-23T02:20:04.916Z,10.70
2022-12-23T02:22:54.583Z,10.70
2022-12-23T02:25:54.719Z,10.60
2022-12-23T02:29:01.263Z,10.70
2022-12-23T02:31:39.188Z,10.70
2022-12-23T02:34:15.422Z,10.80
2022-12-23T02:36:51.510Z,10.80
2022-12-23T02:39:28.150Z,10.90
2022-12-23T02:42:01.515Z,10.90
2022-12-23T02:44:34.026Z,10.90
2022-12-23T02:47:09.494Z,10.90
2022-12-23T02:49:43.477Z,10.90
2022-12-23T02:52:15.445Z,11.00
2022-12-23T02:54:47.161Z,11.10
2022-12-23T02:57:18.155Z,11.10
2022-12-23T02:59:50.042Z,11.10
2022-12-23T03:02:19.590Z,11.00
2022-12-23T03:04:47.717Z,11.00
2022-12-23T03:07:22.069Z,11.00
2022-12-23T03:09:59.024Z,11.00
2022-12-23T03:12:37.808Z,11.10
2022-12-23T03:15:19.219Z,11.10
2022-12-23T03:18:01.519Z,11.20
2022-12-23T03:20:37.056Z,11.20
2022-12-23T03:23:12.160Z,11.20
2022-12-23T03:25:46.719Z,11.30
2022-12-23T03:28:19.086Z,11.30
2022-12-23T03:30:55.777Z,11.30
2022-12-23T03:33:28.653Z,11.40
2022-12-23T03:36:00.443Z,11.30
2022-12-23T03:38:31.074Z,11.40
2022-12-23T03:41:02.824Z,11.40
2022-12-23T03:43:35.651Z,11.40
2022-12-23T03:46:11.431Z,11.40
2022-12-23T03:48:43.993Z,11.40
2022-12-23T03:51:17.118Z,11.40
2022-12-23T03:53:50.698Z,11.40
2022-12-23T03:56:22.619Z,11.40
2022-12-23T03:58:57.220Z,11.40
2022-12-23T04:01:32.546Z,11.40
2022-12-23T04:04:05.293Z,11.30
2022-12-23T04:06:40.090Z,11.30
2022-12-23T04:09:08.872Z,11.30
2022-12-23T04:11:37.911Z,11.30
2022-12-23T04:14:05.916Z,11.30
2022-12-23T04:16:34.387Z,11.30
2022-12-23T04:19:03.746Z,11.30
2022-12-23T04:21:31.714Z,11.40
2022-12-23T04:23:59.687Z,11.40
2022-12-23T04:26:27.679Z,11.40
2022-12-23T04:28:55.690Z,11.30
2022-12-23T04:31:23.725Z,11.40
2022-12-23T04:33:51.763Z,11.40
2022-12-23T04:36:21.064Z,11.40
2022-12-23T04:38:49.030Z,11.40
2022-12-23T04:41:17.047Z,11.40
2022-12-23T04:43:49.338Z,11.40
2022-12-23T04:46:20.707Z,11.40
2022-12-23T04:48:48.717Z,11.30
2022-12-23T04:51:16.722Z,11.40
2022-12-23T04:53:46.022Z,11.40
2022-12-23T04:56:13.971Z,11.30
2022-12-23T04:58:41.920Z,11.30
2022-12-23T05:01:12.222Z,11.30
2022-12-23T05:03:40.857Z,11.20
2022-12-23T05:06:09.439Z,11.20
2022-12-23T05:08:37.541Z,11.10
2022-12-23T05:11:07.504Z,11.10
2022-12-23T05:13:35.570Z,11.10
2022-12-23T05:16:03.625Z,11.10
2022-12-23T05:18:31.638Z,11.20
2022-12-23T05:20:59.659Z,11.10
2022-12-23T05:23:27.701Z,11.20
2022-12-23T05:25:55.926Z,11.20
2022-12-23T05:28:25.353Z,11.20
2022-12-23T05:30:59.800Z,11.20
2022-12-23T05:33:28.161Z,11.20
2022-12-23T05:35:56.409Z,11.20
2022-12-23T05:38:24.680Z,11.20
2022-12-23T05:40:52.769Z,11.20
2022-12-23T05:43:20.875Z,11.20
2022-12-23T05:45:51.280Z,11.20
2022-12-23T05:48:19.522Z,11.20
2022-12-23T05:50:50.578Z,11.20
2022-12-23T05:53:18.625Z,11.30
2022-12-23T05:55:46.807Z,11.30
2022-12-23T05:58:15.402Z,11.30
2022-12-23T06:00:43.579Z,11.30
2022-12-23T06:03:13.062Z,11.20
2022-12-23T06:05:43.564Z,11.30
2022-12-23T06:08:11.680Z,11.30
2022-12-23T06:10:39.748Z,11.30
2022-12-23T06:13:07.808Z,11.30
2022-12-23T06:15:35.755Z,11.30
2022-12-23T06:18:03.804Z,11.30
2022-12-23T06:20:33.235Z,11.30
2022-12-23T06:23:01.347Z,11.40
2022-12-23T06:25:29.484Z,11.40
2022-12-23T06:27:57.539Z,11.30
2022-12-23T06:30:25.573Z,11.40
2022-12-23T06:32:53.646Z,11.40
2022-12-23T06:35:21.622Z,11.40
2022-12-23T06:37:54.072Z,11.40
2022-12-23T06:40:22.069Z,11.40
2022-12-23T06:42:50.241Z,11.40
2022-12-23T06:45:18.355Z,11.40
2022-12-23T06:47:46.460Z,11.40
2022-12-23T06:50:14.489Z,11.30
2022-12-23T06:52:42.528Z,11.30
2022-12-23T06:55:12.011Z,11.30
2022-12-23T06:57:40.054Z,11.20
2022-12-23T07:00:09.664Z,11.20
2022-12-23T07:02:37.843Z,11.30
2022-12-23T07:05:06.316Z,11.20
2022-12-23T07:07:34.349Z,11.30
2022-12-23T07:10:02.392Z,11.30
2022-12-23T07:12:31.733Z,11.30
2022-12-23T07:14:59.930Z,11.20
2022-12-23T07:17:27.857Z,11.20
2022-12-23T07:19:55.897Z,11.20
2022-12-23T07:22:23.881Z,11.00
2022-12-23T07:24:52.003Z,11.00
2022-12-23T07:27:19.974Z,11.00
2022-12-23T07:29:49.333Z,11.00
2022-12-23T07:32:17.338Z,11.00
2022-12-23T07:34:45.325Z,11.00
2022-12-23T07:37:13.319Z,11.00
2022-12-23T07:39:41.322Z,11.00
2022-12-23T07:42:42.952Z,11.00
2022-12-23T07:44:58.659Z,10.90
2022-12-23T07:47:26.703Z,10.90
2022-12-23T07:49:54.727Z,11.00
2022-12-23T07:52:22.864Z,11.00
2022-12-23T07:54:50.893Z,11.00
2022-12-23T07:57:18.857Z,11.00
2022-12-23T07:59:46.916Z,11.00
2022-12-23T08:02:16.409Z,11.00
2022-12-23T08:04:46.488Z,11.00
2022-12-23T08:07:14.858Z,11.10
2022-12-23T08:09:42.854Z,11.00
2022-12-23T08:12:10.837Z,11.10
2022-12-23T08:14:38.820Z,11.10
2022-12-23T08:17:06.923Z,11.10
2022-12-23T08:19:36.377Z,11.00
2022-12-23T08:22:04.565Z,11.00
2022-12-23T08:24:32.531Z,11.10
2022-12-23T08:27:00.566Z,11.10
2022-12-23T08:29:32.609Z,11.10
2022-12-23T08:32:04.519Z,11.00
2022-12-23T08:34:32.704Z,11.10
2022-12-23T08:37:02.318Z,11.10
2022-12-23T08:39:30.716Z,11.10
2022-12-23T08:41:58.772Z,11.10
2022-12-23T08:44:28.049Z,11.10
2022-12-23T08:46:56.908Z,11.10
2022-12-23T08:49:25.146Z,11.10
2022-12-23T08:51:54.071Z,11.10
2022-12-23T08:54:23.791Z,11.10
2022-12-23T08:56:51.915Z,11.10
2022-12-23T08:59:20.167Z,11.10
2022-12-23T09:01:48.815Z,11.10
2022-12-23T09:04:17.172Z,11.10
2022-12-23T09:06:46.073Z,11.10
2022-12-23T09:09:16.377Z,11.20
2022-12-23T09:11:45.803Z,11.20
2022-12-23T09:14:15.110Z,11.20
2022-12-23T09:16:43.092Z,11.20
2022-12-23T09:19:11.258Z,11.20
2022-12-23T09:21:39.288Z,11.20
2022-12-23T09:24:07.811Z,11.20
2022-12-23T09:26:35.990Z,11.20
2022-12-23T09:29:05.380Z,11.20
2022-12-23T09:31:37.301Z,11.20
2022-12-23T09:34:06.433Z,11.20
2022-12-23T09:36:34.696Z,11.20
2022-12-23T09:39:02.724Z,11.20
2022-12-23T09:41:50.035Z,11.20
2022-12-23T09:44:38.454Z,11.20
2022-12-23T09:47:13.478Z,11.20
2022-12-23T09:49:48.581Z,11.10
2022-12-23T09:52:23.366Z,11.10
2022-12-23T09:54:54.141Z,11.10
2022-12-23T09:57:27.332Z,11.20
2022-12-23T10:00:12.046Z,11.20
2022-12-23T10:02:49.815Z,11.20
2022-12-23T10:05:35.248Z,11.20
2022-12-23T10:08:07.773Z,11.30
2022-12-23T10:10:40.521Z,11.20
2022-12-23T10:13:20.408Z,11.30
2022-12-23T10:15:51.567Z,11.30
2022-12-23T10:18:25.934Z,11.20
2022-12-23T10:20:59.206Z,11.30
2022-12-23T10:23:32.437Z,11.30
2022-12-23T10:26:02.409Z,11.30
2022-12-23T10:28:30.483Z,11.30
2022-12-23T10:34:02.956Z,11.30
2022-12-23T10:36:41.453Z,11.30
2022-12-23T10:39:20.516Z,11.30
2022-12-23T10:41:58.466Z,11.40
2022-12-23T10:44:47.102Z,11.40
2022-12-23T10:47:27.916Z,11.40
2022-12-23T10:50:09.257Z,11.40
2022-12-23T10:52:42.017Z,11.40
2022-12-23T10:55:19.779Z,11.40
2022-12-23T10:57:47.963Z,11.40
2022-12-23T11:00:21.201Z,11.40
2022-12-23T11:03:04.671Z,11.40
2022-12-23T11:05:35.122Z,11.40
2022-12-23T11:08:03.703Z,11.30
2022-12-23T11:10:34.303Z,11.30
2022-12-23T11:13:02.616Z,11.30
2022-12-23T11:15:33.510Z,11.30
2022-12-23T11:18:17.328Z,11.40
2022-12-23T11:20:47.094Z,11.40
2022-12-23T11:23:25.875Z,11.40
2022-12-23T11:26:02.723Z,11.40
2022-12-23T11:28:32.179Z,11.50
2022-12-23T11:31:08.453Z,11.50
2022-12-23T11:33:40.969Z,11.40
2022-12-23T11:36:18.307Z,11.40
2022-12-23T11:38:51.262Z,11.40
2022-12-23T11:41:21.861Z,11.40
2022-12-23T11:43:57.457Z,11.40
2022-12-23T11:46:28.952Z,11.40
2022-12-23T11:49:18.378Z,11.40
2022-12-23T11:51:48.645Z,11.30
2022-12-23T11:54:19.141Z,11.30
2022-12-23T11:56:51.383Z,11.30
2022-12-23T11:59:29.660Z,11.20
2022-12-23T12:02:00.932Z,11.20
2022-12-23T12:04:33.565Z,11.20
2022-12-23T12:07:02.738Z,11.20
2022-12-23T12:09:32.737Z,11.20
2022-12-23T12:12:06.448Z,11.20
2022-12-23T12:14:41.955Z,11.20
2022-12-23T12:17:17.115Z,11.10
2022-12-23T12:19:57.707Z,11.10
2022-12-23T12:22:33.313Z,11.20
2022-12-23T12:25:05.326Z,11.10
2022-12-23T12:27:40.289Z,11.10
2022-12-23T12:30:16.680Z,11.10
2022-12-23T12:32:51.692Z,11.00
2022-12-23T12:35:26.786Z,11.00
2022-12-23T12:38:00.475Z,11.00
2022-12-23T12:40:35.334Z,11.00
2022-12-23T12:43:06.978Z,11.00
2022-12-23T12:45:40.617Z,11.00
2022-12-23T12:48:25.236Z,11.00
2022-12-23T12:51:03.544Z,10.90
2022-12-23T12:53:33.330Z,10.90
2022-12-23T12:56:08.188Z,10.90
2022-12-23T12:58:38.632Z,10.90
2022-12-23T13:01:22.118Z,10.90
2022-12-23T13:04:26.352Z,10.90
2022-12-23T13:07:03.749Z,10.90
2022-12-23T13:09:37.788Z,10.90
2022-12-23T13:12:15.749Z,10.90
2022-12-23T13:14:57.253Z,10.90
2022-12-23T13:17:29.423Z,10.90
2022-12-23T13:20:09.688Z,11.00
2022-12-23T13:22:39.571Z,11.00
2022-12-23T13:25:16.093Z,11.00
2022-12-23T13:27:50.341Z,11.00
2022-12-23T13:30:21.571Z,11.00
2022-12-23T13:33:05.059Z,11.00
2022-12-23T13:35:42.763Z,11.00
2022-12-23T13:38:30.816Z,10.90
2022-12-23T13:41:04.141Z,11.00
2022-12-23T13:43:41.569Z,11.00
2022-12-23T13:46:19.522Z,11.00
2022-12-23T13:48:55.738Z,11.00
2022-12-23T13:51:31.513Z,10.90
2022-12-23T13:54:09.107Z,10.90
2022-12-23T13:56:43.197Z,10.90
2022-12-23T13:59:12.524Z,10.90
2022-12-23T14:01:47.474Z,10.90
2022-12-23T14:04:34.804Z,10.90
2022-12-23T14:07:08.281Z,10.90
2022-12-23T14:09:39.204Z,10.90
2022-12-23T14:12:22.317Z,10.80
2022-12-23T14:15:20.426Z,10.80
2022-12-23T14:18:02.699Z,10.80
2022-12-23T14:20:44.149Z,10.80
2022-12-23T14:23:28.252Z,10.80
2022-12-23T14:26:12.598Z,10.80
2022-12-23T14:29:12.516Z,10.80
2022-12-23T14:31:43.129Z,10.80
2022-12-23T14:34:27.981Z,10.90
2022-12-23T14:37:36.960Z,10.90
2022-12-23T14:40:47.468Z,11.00
2022-12-23T14:43:52.693Z,11.00
2022-12-23T14:46:55.524Z,11.00
2022-12-23T14:49:47.814Z,11.00
2022-12-23T14:52:52.419Z,11.10
2022-12-23T14:55:46.616Z,11.10
2022-12-23T14:58:49.112Z,11.10
2022-12-23T15:01:19.479Z,11.10
2022-12-23T15:03:59.258Z,11.10
2022-12-23T15:06:36.243Z,11.10
2022-12-23T15:09:05.346Z,11.10
2022-12-23T15:11:35.581Z,11.10
2022-12-23T15:14:11.241Z,11.10
2022-12-23T15:16:45.029Z,11.10
2022-12-23T15:19:22.526Z,11.10
2022-12-23T15:21:59.613Z,11.20
2022-12-23T15:24:33.482Z,11.20
2022-12-23T15:27:26.103Z,11.10
2022-12-23T15:29:52.816Z,11.20
2022-12-23T15:32:23.396Z,11.20
2022-12-23T15:34:53.120Z,11.20
2022-12-23T15:37:28.906Z,11.20
2022-12-23T15:40:04.842Z,11.20
2022-12-23T15:42:39.855Z,11.20
2022-12-23T15:45:30.842Z,11.20
2022-12-23T15:47:59.155Z,11.30
2022-12-23T15:50:28.439Z,11.30
2022-12-23T15:53:00.531Z,11.30
2022-12-23T15:55:31.416Z,11.40
2022-12-23T15:58:01.083Z,11.40
2022-12-23T16:00:37.208Z,11.40
2022-12-23T16:03:11.910Z,11.40
2022-12-23T16:05:44.848Z,11.40
2022-12-23T16:08:28.960Z,11.40
2022-12-23T16:11:05.200Z,11.40
2022-12-23T16:13:34.303Z,11.40
2022-12-23T16:16:35.408Z,11.40
2022-12-23T16:19:03.648Z,11.50
2022-12-23T16:21:34.564Z,11.50
2022-12-23T16:24:04.106Z,11.50
2022-12-23T16:26:32.270Z,11.60
2022-12-23T16:29:01.938Z,11.60
2022-12-23T16:31:30.394Z,11.70
2022-12-23T16:34:01.040Z,11.80
2022-12-23T16:36:37.656Z,12.10
2022-12-23T16:39:18.180Z,12.40
2022-12-23T16:41:46.697Z,12.70
2022-12-23T16:44:14.930Z,12.80
2022-12-23T16:46:45.293Z,12.90
2022-12-23T16:49:17.436Z,13.00
2022-12-23T16:51:45.692Z,13.10
2022-12-23T16:54:15.597Z,13.10
2022-12-23T16:56:44.317Z,13.20
2022-12-23T16:59:12.275Z,13.20
2022-12-23T17:01:44.366Z,13.10
2022-12-23T17:04:13.162Z,13.10
2022-12-23T17:06:42.675Z,13.10
2022-12-23T17:09:12.243Z,13.00
2022-12-23T17:11:44.464Z,13.10
2022-12-23T17:14:17.327Z,13.10
2022-12-23T17:16:46.061Z,13.10
2022-12-23T17:19:14.349Z,13.10
2022-12-23T17:21:45.692Z,13.10
2022-12-23T17:24:23.046Z,13.10
2022-12-23T17:26:51.563Z,13.10
2022-12-23T17:29:19.675Z,13.10
2022-12-23T17:31:49.487Z,13.10
2022-12-23T17:34:19.167Z,13.10
2022-12-23T17:36:50.621Z,13.10
2022-12-23T17:39:19.455Z,13.10
2022-12-23T17:41:48.237Z,13.10
2022-12-23T17:44:17.923Z,13.00
2022-12-23T17:46:46.781Z,13.10
2022-12-23T17:49:14.972Z,13.10
2022-12-23T17:51:43.829Z,13.10
2022-12-23T17:54:22.375Z,13.10
2022-12-23T17:56:50.811Z,13.10
2022-12-23T17:59:18.905Z,13.00
2022-12-23T18:01:46.968Z,13.10
2022-12-23T18:04:15.203Z,13.10
2022-12-23T18:06:43.258Z,13.10
2022-12-23T18:09:11.429Z,13.10
2022-12-23T18:11:43.907Z,13.10
2022-12-23T18:14:17.188Z,13.10
2022-12-23T18:16:45.497Z,13.10
2022-12-23T18:19:17.990Z,13.10
2022-12-23T18:21:46.460Z,13.10
2022-12-23T18:24:14.731Z,13.60
2022-12-23T18:26:44.588Z,13.80
2022-12-23T18:29:12.687Z,14.00
2022-12-23T18:31:50.654Z,13.90
2022-12-23T18:34:20.487Z,13.60
2022-12-23T18:36:51.540Z,13.40
2022-12-23T18:39:20.098Z,13.30
2022-12-23T18:41:49.919Z,13.10
2022-12-23T18:44:20.230Z,13.00
2022-12-23T18:46:48.540Z,13.00
2022-12-23T18:49:16.758Z,13.00
2022-12-23T18:51:44.852Z,13.00
2022-12-23T18:54:15.344Z,13.00
2022-12-23T18:56:43.552Z,13.00
2022-12-23T18:59:22.561Z,13.00
2022-12-23T19:01:56.159Z,13.00
2022-12-23T19:04:24.369Z,13.00
2022-12-23T19:06:52.588Z,13.00
2022-12-23T19:09:22.638Z,13.00
2022-12-23T19:11:52.823Z,13.10
2022-12-23T19:14:22.197Z,13.00
2022-12-23T19:16:52.267Z,13.00
2022-12-23T19:19:20.958Z,13.00
2022-12-23T19:21:49.030Z,13.00
2022-12-23T19:24:17.073Z,13.00
2022-12-23T19:26:45.246Z,12.90
2022-12-23T19:29:13.441Z,13.00
2022-12-23T19:31:42.891Z,13.00
2022-12-23T19:34:15.026Z,13.00
2022-12-23T19:36:44.102Z,12.90
2022-12-23T19:39:15.950Z,12.90
2022-12-23T19:41:44.431Z,13.00
2022-12-23T19:44:12.518Z,12.90
2022-12-23T19:46:42.199Z,13.00
2022-12-23T19:49:15.762Z,13.00
2022-12-23T19:51:47.593Z,13.00
2022-12-23T19:54:15.790Z,13.00
2022-12-23T19:56:44.243Z,12.90
2022-12-23T19:59:12.800Z,12.90
2022-12-23T20:01:42.288Z,12.90
2022-12-23T20:04:11.047Z,12.90
2022-12-23T20:06:41.020Z,13.00
2022-12-23T20:09:11.770Z,13.00
2022-12-23T20:11:42.711Z,13.00
2022-12-23T20:14:11.648Z,13.00
2022-12-23T20:16:42.110Z,13.00
2022-12-23T20:19:10.811Z,13.00
2022-12-23T20:21:39.034Z,13.10
2022-12-23T20:24:07.650Z,13.00
2022-12-23T20:26:35.788Z,13.10
2022-12-23T20:29:04.202Z,13.10
2022-12-23T20:31:33.511Z,13.10
2022-12-23T20:34:03.359Z,13.00
2022-12-23T20:36:33.684Z,13.00
2022-12-23T20:39:03.364Z,13.00
2022-12-23T20:41:32.600Z,13.00
2022-12-23T20:46:49.013Z,13.10
2022-12-23T20:49:18.410Z,13.00
2022-12-23T20:51:46.418Z,13.00
2022-12-23T20:54:14.479Z,13.00
2022-12-23T20:56:42.567Z,13.00
2022-12-23T20:59:11.114Z,13.00
2022-12-23T21:01:41.667Z,13.10
2022-12-23T21:04:12.747Z,13.10
2022-12-23T21:06:42.469Z,13.10
2022-12-23T21:09:13.004Z,13.00
2022-12-23T21:11:43.866Z,13.10
2022-12-23T21:14:12.300Z,13.10
2022-12-23T21:16:41.123Z,13.00
2022-12-23T21:19:14.028Z,13.10
2022-12-23T21:21:43.713Z,13.10
2022-12-23T21:24:12.752Z,13.00
2022-12-23T21:26:41.313Z,13.10
2022-12-23T21:29:11.512Z,13.00
2022-12-23T21:31:42.043Z,13.10
2022-12-23T21:34:14.223Z,13.00
2022-12-23T21:36:44.184Z,13.00
2022-12-23T21:39:18.150Z,13.00
2022-12-23T21:41:46.230Z,13.00
2022-12-23T21:44:15.377Z,12.90
2022-12-23T21:46:43.601Z,13.00
2022-12-23T21:49:12.578Z,13.00
2022-12-23T21:51:42.071Z,13.00
2022-12-23T21:54:12.537Z,13.00
2022-12-23T21:56:41.116Z,12.90
2022-12-23T21:59:12.757Z,12.90
2022-12-23T22:01:41.419Z,12.90
2022-12-23T22:04:09.525Z,12.80
2022-12-23T22:06:40.098Z,12.80
2022-12-23T22:09:09.072Z,12.80
2022-12-23T22:11:39.004Z,12.80
2022-12-23T22:14:09.280Z,12.80
2022-12-23T22:16:37.845Z,12.70
2022-12-23T22:19:08.723Z,12.70
2022-12-23T22:21:37.286Z,12.70
2022-12-23T22:24:06.311Z,12.70
2022-12-23T22:26:34.616Z,12.80
2022-12-23T22:29:06.478Z,12.80
2022-12-23T22:31:39.780Z,12.80
2022-12-23T22:34:09.544Z,12.80
2022-12-23T22:36:37.713Z,12.70
2022-12-23T22:39:07.770Z,12.70
2022-12-23T22:41:36.485Z,12.70
2022-12-23T22:44:06.225Z,12.70
2022-12-23T22:46:34.451Z,12.70
2022-12-23T22:49:02.683Z,12.70
2022-12-23T22:51:32.057Z,12.70
2022-12-23T22:54:00.362Z,12.70
2022-12-23T22:56:28.936Z,12.70
2022-12-23T22:58:57.019Z,12.70
2022-12-23T23:01:28.313Z,12.60
2022-12-23T23:04:00.187Z,12.70
2022-12-23T23:06:30.225Z,12.70
2022-12-23T23:08:58.895Z,12.70
2022-12-23T23:11:28.298Z,12.70
2022-12-23T23:13:56.710Z,12.60
2022-12-23T23:16:26.906Z,12.60
2022-12-23T23:18:55.497Z,12.60
2022-12-23T23:21:23.716Z,12.60
2022-12-23T23:23:51.921Z,12.60
2022-12-23T23:26:20.999Z,12.60
2022-12-23T23:28:49.318Z,12.60
2022-12-23T23:31:41.049Z,12.50
2022-12-23T23:34:06.764Z,12.50
2022-12-23T23:36:34.785Z,12.50
2022-12-23T23:39:02.866Z,12.50
2022-12-23T23:41:30.857Z,12.50
2022-12-23T23:43:58.816Z,12.50
2022-12-23T23:46:26.932Z,12.50
2022-12-23T23:48:55.002Z,12.40
2022-12-23T23:51:24.511Z,12.40
2022-12-23T23:53:52.477Z,12.40
2022-12-23T23:56:25.335Z,12.40
2022-12-23T23:58:54.423Z,12.40
